LFMN 301030Z AUTO 14006KT CAVOK 21/12 Q1017 NOSIG

ElémentsDécodage
LFMN Station météo située sur l'aérodrome de NICE Côte-d'Azur
301030Z émis le 30 du mois à 10h30 UTC
AUTO Bulletin édité par un automate
14006KT vent du 140°, 06 noeuds
CAVOK Ceiling And Visibility OK
- Visibilité de 10 Km ou plus
- Pas de nuage au-dessous de 1500m ou au-dessous de l'altitude minimale du secteur la plus élevée (si>1500m) et absence de CB
- pas de temps présent significatif
21/12 température 21°C, point de rosée 12°C
 soit une humidité relative de 56%
Q1017 la pression au niveau de la mer (QNH) est de 1017 hPa
NOSIG Pas de changement significatif prévu au cours des deux heures suivant l'heure de l'observation